Tipton Airport
KFME : now visible

Airfield :











YOU CAN JOIN US ON...

 
LOGIN :

Register | Disclaimer

   EN    FR    IT 

 









Legend :    VFR   Marginal VFR   IFR   Intensive IFR   Very Intensive IFR
Visi :
Ceiling :
>= 8 km
>= 3000ft
5 to 8 km
1000 to 3000 ft
1500m to 5 km
500 to 1000 ft
800 to 1500m
200 to 500 ft
< 800m
< 200 ft
Symbols :   Thunderstorms  Fog  Heavy snow  Heavy precipitations  Wind > 20 kt






- Airport Elevation : 150 ft


KFME - Tipton

CURRENT METAR :
  • 161635Z AUTO 13009G18KT 10SM SCT029 SCT080 SCT100 27/22 A3027 RMK AO1

EXPIRED METARs :
  • 161615Z AUTO 12008KT 10SM SCT030 SCT065 BKN080 26/22 A3026 RMK AO1
  • 161555Z AUTO 15005KT 10SM SCT021 BKN070 OVC075 26/21 A3027 RMK AO1
  • 161535Z AUTO 13008KT 10SM BKN021 OVC070 26/21 A3027 RMK AO1
  • 161515Z AUTO 11010G15KT 10SM SCT019 SCT025 BKN070 26/21 A3027 RMK AO1
  • 161455Z AUTO 13008KT 10SM SCT017 SCT022 SCT033 25/21 A3026 RMK AO1
  • 161435Z AUTO 14008KT 10SM SCT017 BKN029 BKN034 25/21 A3026 RMK AO1
  • 161415Z AUTO 12006KT 10SM SCT015 BKN021 OVC030 25/22 A3026 RMK AO1
  • 161355Z AUTO 13006KT 10SM BKN017 OVC024 25/21 A3026 RMK AO1

TAF N/A
KZDC FIR / North America



MET'MAP, your aeronautical weather chart ! - Copyright ORBIFLY December 2007 - Disclaimer

ORBIFLY MET'MAP TEAM :

Programming & Development : Alexandra Zaïnal
Concept & original design : Baudouin d'Aumeries
Assistance for programming : Marc-Olivier Méhu
Technical & hardware support : Manuel Goepfert

Contact : metmap@orbifly.com




SOURCES & CREDITS :

   NOAA       Earth
Advisory